Terminal Aerodrome Forecast
Issued by NWS

Home | Current Version | Previous Version | Text Only | Print | Product List | Glossary On
Versions: 1 2 3 4 5 6 7 8 9 10 11 12 13 14 15 16 17
000
FTUS43 KMQT 011737
TAFCMX
TAF
KCMX 011737Z 0118/0218 02014G24KT P6SM FEW015 BKN035
     FM012200 36011G20KT P6SM BKN040
     FM020200 35008KT P6SM BKN050
     FM021200 33005KT P6SM -SHSN BKN040
     FM021400 32006KT P6SM -SHSN BKN030=

USA.gov is the U.S. government's official web portal to all federal, state and local government web resources and services.